Time;durP1;ratioP1;P1;durP2;ratioP2;P2;SDS_P1;SDS_P2;PMS_P1;PMS_P2;Temp;Humidity;BMP_temperature;BMP_pressure;BME280_temperature;BME280_humidity;BME280_pressure;Samples;Min_cycle;Max_cycle;Signal;HPM_P1;HPM_P2
2024/01/19 00:00:31;;;;;;;23.35;14.30;;;;;;;-144.05;80.73;57118.59;5103251;28;20035;-78
2024/01/19 00:02:57;;;;;;;25.73;13.20;;;;;;;-144.05;80.47;57124.97;5102586;28;20557;-78
2024/01/19 00:05:24;;;;;;;26.50;14.88;;;;;;;-144.05;81.07;57129.22;5098942;28;20111;-79
2024/01/19 00:07:50;;;;;;;26.35;14.38;;;;;;;-144.05;80.93;57124.97;5093591;28;20028;-78
2024/01/19 00:10:16;;;;;;;30.13;14.70;;;;;;;-144.05;81.30;57114.34;5094726;28;20040;-79
2024/01/19 00:12:42;;;;;;;29.45;15.77;;;;;;;-144.05;81.20;57110.09;5094035;28;20052;-78
2024/01/19 00:15:10;;;;;;;29.42;16.65;;;;;;;-144.05;81.52;57127.09;5093312;28;20437;-78
2024/01/19 00:17:36;;;;;;;42.60;16.05;;;;;;;-144.05;80.91;57112.22;5092354;28;20024;-79
2024/01/19 00:20:04;;;;;;;29.77;15.05;;;;;;;-144.05;80.66;57141.94;5098946;28;20024;-77
2024/01/19 00:22:30;;;;;;;30.48;16.17;;;;;;;-144.05;80.54;57129.22;5098873;28;20032;-78
2024/01/19 00:24:56;;;;;;;21.80;14.82;;;;;;;-144.05;79.71;57118.59;5109078;28;20032;-79
2024/01/19 00:27:22;;;;;;;25.90;15.05;;;;;;;-144.05;80.07;57127.09;5099590;28;20032;-79
2024/01/19 00:29:49;;;;;;;25.38;14.63;;;;;;;-144.05;79.80;57093.09;5105925;28;20039;-79
2024/01/19 00:32:16;;;;;;;24.77;14.38;;;;;;;-144.05;79.49;57103.72;5105445;28;20054;-77
2024/01/19 00:34:42;;;;;;;30.85;16.75;;;;;;;-144.05;79.70;57101.59;5099049;28;20020;-78
2024/01/19 00:37:08;;;;;;;27.25;15.57;;;;;;;-144.05;80.44;57122.84;5097952;28;20039;-76
2024/01/19 00:39:34;;;;;;;28.40;15.93;;;;;;;-144.05;80.58;57150.44;5106043;28;20126;-75
2024/01/19 00:42:01;;;;;;;29.42;16.00;;;;;;;-144.05;80.02;57152.56;5098074;28;20496;-78
2024/01/19 00:44:28;;;;;;;30.48;16.55;;;;;;;-144.05;79.67;57114.34;5093473;28;20031;-79
2024/01/19 00:46:54;;;;;;;28.38;16.67;;;;;;;-144.05;79.72;57105.84;5091651;28;20516;-77
2024/01/19 00:49:21;;;;;;;31.38;16.02;;;;;;;-144.05;79.60;57107.97;5098130;28;20118;-78
2024/01/19 00:51:47;;;;;;;29.02;16.20;;;;;;;-144.05;79.16;57056.97;5091877;28;20024;-77
2024/01/19 00:54:14;;;;;;;31.50;15.27;;;;;;;-144.05;78.65;57122.84;5094044;28;20412;-78
2024/01/19 00:56:40;;;;;;;30.40;14.50;;;;;;;-144.05;78.08;57107.97;5094862;28;20020;-78
2024/01/19 00:59:06;;;;;;;33.00;16.00;;;;;;;-144.05;78.04;57093.09;5094128;28;20036;-79
2024/01/19 01:01:32;;;;;;;30.73;15.20;;;;;;;-144.05;77.89;57086.72;5093857;28;20016;-76
2024/01/19 01:03:59;;;;;;;31.00;14.82;;;;;;;-144.05;77.83;57099.47;5104886;28;20039;-75
2024/01/19 01:06:26;;;;;;;31.92;15.50;;;;;;;-144.05;77.90;57114.34;5096971;28;20046;-77
2024/01/19 01:08:52;;;;;;;34.35;15.85;;;;;;;-144.05;77.47;57120.72;5091964;28;20050;-79
2024/01/19 01:11:20;;;;;;;35.60;16.90;;;;;;;-144.05;78.09;57110.09;5093927;28;20085;-77
2024/01/19 01:13:47;;;;;;;38.58;15.70;;;;;;;-144.05;77.30;57099.47;5091298;28;20031;-77
2024/01/19 01:16:13;;;;;;;34.47;15.88;;;;;;;-144.05;77.19;57139.81;5096168;28;20036;-77
2024/01/19 01:18:40;;;;;;;36.22;16.27;;;1.00;99.90;;;-144.05;77.86;57122.84;5098677;28;20063;-80
2024/01/19 01:21:07;;;;;;;36.65;15.90;;;0.50;99.90;;;-144.05;77.22;57154.69;5094172;28;20036;-76
2024/01/19 01:23:33;;;;;;;35.10;16.55;;;;;;;-144.05;77.53;57101.59;5105727;28;20024;-76
2024/01/19 01:25:59;;;;;;;35.53;17.17;;;;;;;-144.05;76.81;57114.34;5103548;28;20028;-77
2024/01/19 01:28:26;;;;;;;34.17;14.77;;;;;;;-144.05;76.38;57103.72;5095260;28;20036;-78
2024/01/19 01:30:52;;;;;;;36.92;15.43;;;;;;;-144.05;75.98;57116.47;5098203;28;20032;-76
2024/01/19 01:33:20;;;;;;;36.22;14.70;;;;;;;-144.05;75.87;57137.69;5103919;28;20492;-78
2024/01/19 01:35:46;;;;;;;31.17;15.20;;;;;;;-144.05;75.48;57095.22;5102296;28;20385;-76
2024/01/19 01:38:12;;;;;;;35.90;14.02;;;;;;;-144.05;75.64;57095.22;5101496;28;20450;-76
2024/01/19 01:40:39;;;;;;;31.42;13.75;;;;;;;-144.05;75.89;57131.31;5105459;28;20020;-77
2024/01/19 01:43:06;;;;;;;31.45;14.45;;;;;;;-144.05;75.52;57120.72;5104423;28;20032;-77
2024/01/19 01:45:33;;;;;;;32.53;13.63;;;;;;;-144.05;75.96;57116.47;5101462;28;20035;-77
2024/01/19 01:48:00;;;;;;;33.70;14.13;;;;;;;-144.05;75.53;57129.22;5103467;28;20035;-78
2024/01/19 01:50:26;;;;;;;26.60;11.70;;;;;;;-144.05;75.49;57141.94;5123643;28;20091;-78
2024/01/19 01:52:54;;;;;;;26.20;11.70;;;;;;;-144.05;74.76;57124.97;5121157;28;20034;-77
2024/01/19 01:55:21;;;;;;;27.83;12.23;;;;;;;-144.05;74.93;57095.22;5118227;28;20031;-76
2024/01/19 01:57:47;;;;;;;27.80;12.20;;;;;;;-144.05;74.40;57112.22;5117634;28;20031;-77
2024/01/19 02:00:16;;;;;;;24.55;11.32;;;;;;;-144.05;74.12;57093.09;5101788;28;20048;-79
2024/01/19 02:02:43;;;;;;;21.40;10.77;;;;;;;-144.05;73.60;57093.09;5096841;28;20028;-78
2024/01/19 02:05:10;;;;;;;22.42;11.38;;;;;;;-144.05;73.06;57090.97;5097255;28;20039;-78
2024/01/19 02:07:36;;;;;;;25.02;10.77;;;;;;;-144.05;72.41;57107.97;5098497;28;20058;-79
2024/01/19 02:10:03;;;;;;;27.17;11.80;;;;;;;-144.05;72.56;57116.47;5096633;28;20055;-78
2024/01/19 02:12:30;;;;;;;20.25;10.25;;;;;;;-144.05;72.11;57122.84;5095690;28;20518;-78
2024/01/19 02:14:59;;;;;;;19.88;10.68;;;;;;;-144.05;71.88;57120.72;5096579;28;20028;-78
2024/01/19 02:17:26;;;;;;;19.88;9.85;;;;;;;-144.05;71.89;57127.09;5097066;28;20418;-78
2024/01/19 02:19:53;;;;;;;23.10;10.30;;;;;;;-144.05;71.45;57146.19;5106412;28;20069;-79
2024/01/19 02:22:20;;;;;;;28.23;10.88;;;;;;;-144.05;71.24;57114.34;5122935;28;20222;-79
2024/01/19 02:24:46;;;;;;;25.52;10.20;;;;;;;-144.05;71.17;57124.97;5104197;28;20035;-77
2024/01/19 02:27:14;;;;;;;22.98;10.68;;;;;;;-144.05;71.07;57144.06;5095439;28;20464;-79
2024/01/19 02:29:48;;;;;;;21.08;10.90;;;;;;;-144.05;71.15;57110.09;5093736;28;20028;-78
2024/01/19 02:32:14;;;;;;;28.90;10.48;;;;;;;-144.05;71.36;57127.09;5095591;28;20028;-76
2024/01/19 02:34:40;;;;;;;24.65;12.48;;;;;;;-144.05;71.66;57112.22;5095358;28;20039;-78
2024/01/19 02:37:06;;;;;;;21.27;10.00;;;;;;;-144.05;71.85;57139.81;5095912;28;20488;-78
2024/01/19 02:39:32;;;;;;;23.33;11.38;;;;;;;-144.05;71.18;57120.72;5095423;28;20028;-78
2024/01/19 02:41:59;;;;;;;27.38;12.43;;;;;;;-144.05;71.09;57054.88;5096043;28;20039;-78
2024/01/19 02:44:25;;;;;;;21.55;11.90;;;;;;;-144.05;71.38;57133.44;5101264;28;20067;-77
2024/01/19 02:46:51;;;;;;;24.95;12.23;;;;;;;-144.05;72.11;57105.84;5095042;28;20028;-77
2024/01/19 02:49:17;;;;;;;28.95;12.68;;;;;;;-144.05;72.04;57118.59;5094701;28;20603;-75
2024/01/19 02:51:43;;;;;;;24.88;12.63;;;;;;;-144.05;72.37;57110.09;5093526;28;20035;-79
2024/01/19 02:54:10;;;;;;;27.70;11.75;;;;;;;-144.05;73.03;57141.94;5095831;28;20063;-77
2024/01/19 02:56:36;;;;;;;26.25;13.15;;;;;;;-144.05;72.86;57141.94;5095265;28;20060;-78
2024/01/19 02:59:02;;;;;;;24.95;11.70;;;;;;;-144.05;72.38;57124.97;5094326;28;20055;-75
2024/01/19 03:01:28;;;;;;;21.15;11.45;;;;;;;-144.05;71.93;57154.69;5095181;28;20231;-78
2024/01/19 03:03:55;;;;;;;24.75;12.43;;;;;;;-144.05;71.80;57133.44;5095655;28;20039;-77
2024/01/19 03:06:23;;;;;;;23.20;12.60;;;;;;;-144.05;72.73;57144.06;5094949;28;20027;-77
2024/01/19 03:08:49;;;;;;;24.50;12.75;;;;;;;-144.05;72.37;57154.69;5095533;28;20034;-78
2024/01/19 03:11:15;;;;;;;25.10;13.20;;;;;;;-144.05;72.69;57124.97;5095452;28;20044;-76
2024/01/19 03:13:42;;;;;;;26.60;13.05;;;;;;;-144.05;72.91;57122.84;5094041;28;20419;-76
2024/01/19 03:16:08;;;;;;;26.33;14.38;;;;;;;-144.05;73.56;57112.22;5096062;28;20508;-76
2024/01/19 03:18:34;;;;;;;30.90;14.73;;;;;;;-144.05;73.91;57124.97;5095463;28;20130;-79
2024/01/19 03:21:00;;;;;;;27.63;15.68;;;;;;;-144.05;74.92;57131.31;5095505;28;20016;-77
2024/01/19 03:23:27;;;;;;;32.45;16.90;;;;;;;-144.05;75.79;57105.84;5094605;28;20370;-76
2024/01/19 03:25:53;;;;;;;30.42;15.90;;;;;;;-144.05;75.51;57112.22;5093602;28;20035;-77
2024/01/19 03:28:19;;;;;;;32.15;15.82;;;;;;;-144.05;75.17;57135.56;5092838;28;20040;-76
2024/01/19 03:30:45;;;;;;;31.52;16.30;;;;;;;-144.05;75.77;57118.59;5097433;28;20106;-79
2024/01/19 03:33:11;;;;;;;38.45;17.52;;;;;;;-144.05;75.83;57135.56;5094294;28;20067;-78
2024/01/19 03:35:37;;;;;;;36.85;18.75;;;;;;;-144.05;76.09;57076.09;5094461;28;20103;-75
2024/01/19 03:38:04;;;;;;;40.92;19.60;;;;;;;-144.05;76.14;57107.97;5093983;28;20424;-77
2024/01/19 03:40:30;;;;;;;44.65;20.25;;;;;;;-144.05;77.08;57088.84;5094052;28;20032;-76
2024/01/19 03:42:56;;;;;;;37.83;19.70;;;;;;;-144.05;77.21;57090.97;5093847;28;20108;-75
2024/01/19 03:45:23;;;;;;;44.33;21.15;;;;;;;-144.05;77.57;57131.31;5093349;28;20566;-78
2024/01/19 03:47:49;;;;;;;45.50;20.90;;;;;;;-144.05;77.56;57118.59;5093866;28;20028;-78
2024/01/19 03:50:15;;;;;;;39.97;20.30;;;;;;;-144.05;77.36;57099.47;5092977;28;20504;-77
2024/01/19 03:52:43;;;;;;;44.28;20.88;;;;;;;-144.05;77.63;57107.97;5093256;28;20020;-75
2024/01/19 03:55:09;;;;;;;41.10;20.85;;;;;;;-144.05;77.80;57133.44;5098007;28;20077;-79
2024/01/19 03:57:35;;;;;;;41.92;21.02;;;;;;;-144.05;77.21;57127.09;5113322;28;20026;-79
2024/01/19 04:00:05;;;;;;;45.22;21.08;;;;;;;-144.05;77.44;57107.97;5095062;28;20028;-77
2024/01/19 04:02:31;;;;;;;47.58;20.02;;;;;;;-144.05;77.01;57112.22;5094788;28;20032;-79
2024/01/19 04:04:58;;;;;;;44.03;20.75;;;;;;;-144.05;77.78;57152.56;5095194;28;20416;-77
2024/01/19 04:07:24;;;;;;;41.08;19.85;;;;;;;-144.05;78.33;57118.59;5095619;28;20065;-78
2024/01/19 04:09:50;;;;;;;41.40;20.52;;;;;;;-144.05;77.63;57112.22;5094921;28;20071;-77
2024/01/19 04:12:18;;;;;;;44.08;22.10;;;;;;;-144.05;78.02;57105.84;5094651;28;20096;-76
2024/01/19 04:14:45;;;;;;;40.88;20.48;;;;;;;-144.05;78.59;57093.09;5094494;28;20384;-76
2024/01/19 04:17:12;;;;;;;50.20;19.95;;;1.10;99.90;;;-144.05;78.38;57107.97;5094868;28;20058;-78
2024/01/19 04:19:40;;;;;;;51.95;20.33;;;-3.70;99.90;;;-144.05;79.35;57114.34;5095027;28;20129;-77
2024/01/19 04:22:06;;;;;;;47.75;20.20;;;;;;;-144.05;78.43;57133.44;5093852;28;20074;-76
2024/01/19 04:24:33;;;;;;;46.75;18.90;;;;;;;-144.05;78.55;57118.59;5093855;28;20028;-77
2024/01/19 04:26:59;;;;;;;48.58;19.42;;;;;;;-144.05;78.54;57120.72;5093371;28;20177;-79
2024/01/19 04:29:25;;;;;;;44.47;20.30;;;;;;;-144.05;78.38;57099.47;5093369;28;20039;-78
2024/01/19 04:31:52;;;;;;;43.72;18.98;;;;;;;-144.05;78.46;57122.84;5094002;28;20028;-77
2024/01/19 04:34:18;;;;;;;46.67;19.40;;;;;;;-144.05;79.27;57101.59;5091451;28;20040;-77
2024/01/19 04:36:46;;;;;;;52.53;20.88;;;;;;;-144.05;79.37;57124.97;5099346;28;20028;-78
2024/01/19 04:39:13;;;;;;;49.28;20.70;;;;;;;-144.05;78.97;57127.09;5099546;28;20043;-77
2024/01/19 04:41:39;;;;;;;49.45;19.88;;;;;;;-144.05;78.93;57141.94;5096120;28;20032;-77
2024/01/19 04:44:06;;;;;;;54.70;20.55;;;;;;;-144.05;79.24;57088.84;5093920;28;20059;-76
2024/01/19 04:46:32;;;;;;;55.85;22.05;;;;;;;-144.05;79.03;57099.47;5092478;28;20055;-76
2024/01/19 04:48:58;;;;;;;50.13;21.23;;;;;;;-144.05;79.92;57137.69;5092306;28;20032;-75
2024/01/19 04:51:25;;;;;;;54.80;21.58;;;;;;;-144.05;79.63;57114.34;5093160;28;20043;-76
2024/01/19 04:53:51;;;;;;;59.80;21.95;;;;;;;-144.05;79.79;57093.09;5091476;28;20032;-75
2024/01/19 04:56:17;;;;;;;46.70;18.55;;;;;;;-144.05;80.29;57099.47;5091755;28;20506;-77
2024/01/19 04:58:43;;;;;;;47.25;20.33;;;;;;;-144.05;80.07;57107.97;5093916;28;20066;-79
2024/01/19 05:01:10;;;;;;;51.10;20.58;;;;;;;-144.05;79.90;57088.84;5093355;28;20036;-77
2024/01/19 05:03:37;;;;;;;53.38;19.50;;;;;;;-144.05;79.97;57124.97;5098523;28;20110;-78
2024/01/19 05:06:03;;;;;;;57.03;22.00;;;;;;;-144.05;80.26;57118.59;5093712;28;20036;-75
2024/01/19 05:08:29;;;;;;;50.92;19.55;;;;;;;-144.05;80.47;57116.47;5107707;28;20046;-79
2024/01/19 05:10:55;;;;;;;57.10;22.48;;;;;;;-144.05;80.10;57127.09;5114075;28;20032;-77
2024/01/19 05:13:21;;;;;;;59.25;20.67;;;;;;;-144.05;80.50;57120.72;5098680;28;20177;-78
2024/01/19 05:15:48;;;;;;;63.95;21.00;;;;;;;-144.05;80.59;57099.47;5095723;28;20042;-79
2024/01/19 05:18:14;;;;;;;52.70;21.02;;;;;;;-144.05;80.54;57105.84;5092956;28;20053;-79
2024/01/19 05:20:40;;;;;;;54.15;19.70;;;;;;;-144.05;80.63;57118.59;5093482;28;20048;-78
2024/01/19 05:23:07;;;;;;;54.78;20.20;;;;;;;-144.05;79.85;57088.84;5092729;28;20032;-76
2024/01/19 05:25:33;;;;;;;54.53;21.38;;;;;;;-144.05;80.27;57101.59;5091764;28;20834;-78
2024/01/19 05:27:59;;;;;;;51.22;20.15;;;;;;;-144.05;80.82;57086.72;5092433;28;20031;-76
2024/01/19 05:30:25;;;;;;;49.67;18.65;;;;;;;-144.05;80.47;57120.72;5093190;28;20029;-75
2024/01/19 05:32:52;;;;;;;53.83;20.73;;;;;;;-144.05;80.57;57101.59;5093734;28;20028;-75
2024/01/19 05:35:18;;;;;;;62.60;22.63;;;;;;;-144.05;79.96;57103.72;5092938;28;20032;-76
2024/01/19 05:37:44;;;;;;;49.05;19.23;;;;;;;-144.05;79.83;57103.72;5093179;28;20035;-76
2024/01/19 05:40:11;;;;;;;49.67;20.30;;;;;;;-144.05;79.47;57120.72;5092257;28;20443;-75
2024/01/19 05:42:37;;;;;;;52.33;22.33;;;;;;;-144.05;79.17;57097.34;5096293;28;20028;-76
2024/01/19 05:45:04;;;;;;;49.30;20.02;;;;;;;-144.05;79.69;57107.97;5091835;28;20024;-76
2024/01/19 05:47:30;;;;;;;49.50;18.88;;;;;;;-144.05;80.58;57129.22;5092306;28;20102;-76
2024/01/19 05:49:56;;;;;;;50.92;19.20;;;;;;;-144.05;79.52;57144.06;5093736;28;20032;-80
2024/01/19 05:52:23;;;;;;;51.85;21.60;;;;;;;-144.05;79.48;57107.97;5093009;28;20039;-77
2024/01/19 05:54:49;;;;;;;47.65;18.65;;;;;;;-144.05;80.24;57103.72;5095155;28;20460;-79
2024/01/19 05:57:15;;;;;;;60.72;21.35;;;;;;;-144.05;80.02;57090.97;5098472;28;20091;-77
2024/01/19 05:59:42;;;;;;;57.20;22.25;;;;;;;-144.05;79.92;57110.09;5102254;28;20505;-78
2024/01/19 06:02:08;;;;;;;53.70;19.55;;;;;;;-144.05;80.26;57127.09;5097222;28;20177;-77
2024/01/19 06:04:37;;;;;;;54.22;20.20;;;;;;;-144.05;80.01;57097.34;5094722;28;20114;-79
2024/01/19 06:07:04;;;;;;;51.35;19.88;;;;;;;-144.05;79.96;57110.09;5097803;28;20494;-77
2024/01/19 06:09:30;;;;;;;44.33;19.38;;;;;;;-144.05;79.89;57099.47;5097624;28;20073;-79
2024/01/19 06:11:56;;;;;;;56.95;20.23;;;;;;;-144.05;79.85;57105.84;5093326;28;20028;-77
2024/01/19 06:14:23;;;;;;;51.85;20.45;;;;;;;-144.05;80.17;57110.09;5093872;28;20048;-77
2024/01/19 06:16:50;;;;;;;55.65;20.60;;;;;;;-144.05;80.01;57101.59;5097331;28;20455;-77
2024/01/19 06:19:16;;;;;;;53.78;21.13;;;;;;;-144.05;79.91;57103.72;5097158;28;20558;-78
2024/01/19 06:21:45;;;;;;;48.65;18.63;;;;;;;-144.05;81.07;57101.59;5098476;28;20016;-76
2024/01/19 06:24:16;;;;;;;50.65;19.58;;;-3.20;99.90;;;-144.05;80.45;57093.09;5098796;28;20024;-77
2024/01/19 06:26:48;;;;;;;43.33;19.08;;;;;;;-144.05;80.62;57116.47;5097740;28;20060;-76
2024/01/19 06:29:15;;;;;;;55.63;19.80;;;;;;;-144.05;80.80;57139.81;5097611;28;20055;-78
2024/01/19 06:31:46;;;;;;;58.20;19.45;;;-3.40;99.90;;;-144.05;80.64;57101.59;5104484;28;20404;-76
2024/01/19 06:34:13;;;;;;;49.10;20.80;;;;;;;-144.05;80.87;57124.97;5094789;28;20137;-75
2024/01/19 06:36:44;;;;;;;49.42;20.02;;;;;;;-144.05;81.47;57095.22;5096690;28;20527;-75
2024/01/19 06:39:13;;;;;;;47.80;18.42;;;;;;;-144.05;80.97;57116.47;5102706;28;20058;-78
2024/01/19 06:41:44;;;;;;;46.10;18.35;;;;;;;-144.05;80.37;57131.31;5097461;28;20032;-79
2024/01/19 06:44:11;;;;;;;48.97;19.23;;;;;;;-144.05;80.25;57116.47;5095119;28;20085;-76
2024/01/19 06:46:42;;;;;;;59.20;22.30;;;;;;;-144.05;80.39;57133.44;5096089;28;20036;-75
2024/01/19 06:49:08;;;;;;;54.00;19.42;;;;;;;-144.05;79.90;57076.09;5103117;28;20077;-78
2024/01/19 06:51:35;;;;;;;53.75;20.50;;;;;;;-144.05;80.00;57101.59;5113339;28;20028;-76
2024/01/19 06:54:01;;;;;;;52.15;20.48;;;;;;;-144.05;79.71;57076.09;5095211;28;20060;-77
2024/01/19 06:56:27;;;;;;;57.03;20.30;;;;;;;-144.05;80.05;57107.97;5096000;28;20494;-77
2024/01/19 06:58:54;;;;;;;60.53;21.13;;;;;;;-144.05;80.14;57110.09;5096340;28;20032;-79
2024/01/19 07:01:21;;;;;;;55.03;21.02;;;;;;;-144.05;80.12;57099.47;5094870;28;20109;-79
2024/01/19 07:03:47;;;;;;;54.75;20.75;;;;;;;-144.05;80.52;57067.59;5101196;28;20031;-79
2024/01/19 07:06:13;;;;;;;48.67;20.35;;;;;;;-144.05;79.95;57116.47;5102216;28;20550;-78
2024/01/19 07:08:39;;;;;;;62.42;23.65;;;;;;;-144.05;79.97;57112.22;5096387;28;20047;-80
2024/01/19 07:11:05;;;;;;;54.45;21.42;;;;;;;-144.05;80.57;57129.22;5107875;28;20020;-79
2024/01/19 07:13:32;;;;;;;56.05;22.02;;;;;;;-144.05;80.78;57071.84;5107945;28;20046;-76
2024/01/19 07:15:58;;;;;;;59.22;22.17;;;;;;;-144.05;80.62;57165.31;5128416;28;20031;-77
2024/01/19 07:18:24;;;;;;;58.42;21.00;;;;;;;-144.05;80.39;57080.34;5112416;28;20066;-77
2024/01/19 07:20:50;;;;;;;57.92;21.67;;;;;;;-144.05;80.73;57090.97;5104217;28;20027;-78
2024/01/19 07:23:16;;;;;;;60.58;22.50;;;;;;;-144.05;80.19;57101.59;5099609;28;20024;-77
2024/01/19 07:25:43;;;;;;;50.47;22.80;;;;;;;-144.05;79.57;57120.72;5107515;28;20107;-78
2024/01/19 07:28:09;;;;;;;58.10;22.15;;;;;;;-144.05;80.14;57114.34;5099758;28;20442;-77
2024/01/19 07:30:39;;;;;;;62.38;22.73;;;1.60;99.90;;;-144.05;80.54;57097.34;5097755;28;20039;-75
2024/01/19 07:33:05;;;;;;;53.05;21.13;;;;;;;-144.05;80.40;57090.97;5094783;28;20028;-75
2024/01/19 07:35:31;;;;;;;69.93;22.90;;;;;;;-144.05;80.75;57103.72;5096026;28;20035;-77
2024/01/19 07:37:57;;;;;;;60.40;22.38;;;;;;;-144.05;79.97;57071.84;5099162;28;20106;-80
2024/01/19 07:40:24;;;;;;;55.85;23.33;;;;;;;-144.05;79.52;57078.22;5099687;28;20049;-79
2024/01/19 07:42:50;;;;;;;62.45;22.80;;;;;;;-144.05;79.17;57084.59;5118751;28;20409;-77
2024/01/19 07:45:16;;;;;;;60.80;22.17;;;;;;;-144.05;79.46;57082.47;5100255;28;20047;-77
2024/01/19 07:47:42;;;;;;;56.17;21.75;;;;;;;-144.05;78.87;57069.72;5096797;28;20036;-77
2024/01/19 07:50:10;;;;;;;63.60;24.50;;;;;;;-144.05;79.18;57099.47;5098358;28;20477;-79
2024/01/19 07:52:38;;;;;;;58.05;23.10;;;;;;;-144.05;80.00;57116.47;5100057;28;20489;-78
2024/01/19 07:55:05;;;;;;;63.50;24.85;;;;;;;-144.05;79.97;57103.72;5095548;28;20401;-73
2024/01/19 07:57:31;;;;;;;64.93;25.38;;;;;;;-144.05;80.44;57090.97;5096937;28;20028;-75
2024/01/19 07:59:58;;;;;;;66.97;26.10;;;;;;;-144.05;80.64;57078.22;5096711;28;20489;-75
2024/01/19 08:02:37;;;;;;;60.78;26.15;;;-2.90;99.90;;;-144.05;79.99;57082.47;5122556;28;20088;-80
2024/01/19 08:05:04;;;;;;;65.00;25.35;;;;;;;-144.05;79.49;57084.59;5113665;28;20047;-78
2024/01/19 08:07:30;;;;;;;61.60;24.83;;;;;;;-144.05;79.25;57090.97;5099186;28;20060;-78
2024/01/19 08:09:57;;;;;;;64.82;23.33;;;;;;;-144.05;79.85;57110.09;5094007;28;20031;-75
2024/01/19 08:12:24;;;;;;;59.15;24.83;;;;;;;-144.05;79.49;57080.34;5093469;28;20095;-77
2024/01/19 08:14:52;;;;;;;56.45;24.38;;;;;;;-144.05;79.45;57084.59;5094048;28;20032;-75
2024/01/19 08:17:18;;;;;;;61.05;25.63;;;;;;;-144.05;79.45;57067.59;5094438;28;20036;-77
2024/01/19 08:19:45;;;;;;;65.53;24.88;;;;;;;-144.05;79.46;57069.72;5093657;28;20036;-76
2024/01/19 08:22:12;;;;;;;67.43;27.02;;;1.00;99.90;;;-144.05;79.94;57086.72;5094372;28;20082;-76
2024/01/19 08:24:38;;;;;;;63.60;26.70;;;;;;;-144.05;79.44;57105.84;5096586;28;20097;-77
2024/01/19 08:27:05;;;;;;;60.30;25.70;;;;;;;-144.05;79.52;57069.72;5095575;28;20111;-77
2024/01/19 08:29:34;;;;;;;57.63;25.67;;;;;;;-144.05;79.63;57107.97;5094425;28;20031;-77
2024/01/19 08:32:00;;;;;;;61.75;27.23;;;;;;;-144.05;79.55;57110.09;5107680;28;20027;-76
2024/01/19 08:34:27;;;;;;;60.92;27.30;;;;;;;-144.05;79.63;57097.34;5094463;28;20036;-78
2024/01/19 08:36:53;;;;;;;67.10;26.75;;;;;;;-144.05;80.40;57103.72;5095322;28;20046;-78
2024/01/19 08:39:20;;;;;;;64.43;28.95;;;;;;;-144.05;80.02;57120.72;5094119;28;20031;-77
2024/01/19 08:41:47;;;;;;;66.90;27.58;;;;;;;-144.05;80.07;57095.22;5096228;28;20085;-76
2024/01/19 08:44:14;;;;;;;66.22;27.75;;;;;;;-144.05;79.77;57090.97;5095294;28;20411;-75
2024/01/19 08:46:45;;;;;;;63.00;28.27;;;;;;;-144.05;79.55;57105.84;5095061;28;20028;-76
2024/01/19 08:49:11;;;;;;;59.17;27.20;;;;;;;-144.05;78.71;57080.34;5096076;28;20483;-76
2024/01/19 08:51:38;;;;;;;55.38;25.10;;;;;;;-144.05;78.26;57110.09;5096106;28;20035;-75
2024/01/19 08:54:05;;;;;;;57.58;25.23;;;;;;;-144.05;78.11;57090.97;5095649;28;20024;-78
2024/01/19 08:56:32;;;;;;;58.38;23.88;;;;;;;-144.05;78.50;57071.84;5103005;28;20102;-76
2024/01/19 08:58:58;;;;;;;60.20;26.20;;;;;;;-144.05;77.90;57086.72;5118785;28;20019;-79
2024/01/19 09:01:24;;;;;;;53.92;26.20;;;;;;;-144.05;77.43;57095.22;5099786;28;20132;-78
2024/01/19 09:03:51;;;;;;;58.38;26.15;;;;;;;-144.05;76.99;57073.97;5102774;28;20035;-75
2024/01/19 09:06:17;;;;;;;58.05;25.13;;;;;;;-144.05;77.92;57050.63;5097017;28;20032;-76
2024/01/19 09:08:44;;;;;;;53.10;26.33;;;;;;;-144.05;77.01;57112.22;5095542;28;20122;-77
2024/01/19 09:11:11;;;;;;;55.65;26.05;;;;;;;-144.05;76.97;57088.84;5109023;28;20380;-78
2024/01/19 09:13:38;;;;;;;62.63;26.27;;;;;;;-144.05;76.59;57082.47;5100242;28;20422;-76
2024/01/19 09:16:10;;;;;;;57.40;26.73;;;2.40;99.90;;;-144.05;77.63;57118.59;5097487;28;20043;-77
2024/01/19 09:18:37;;;;;;;57.42;26.70;;;;;;;-144.05;77.48;57105.84;5096654;28;20036;-76
2024/01/19 09:21:04;;;;;;;54.58;28.40;;;;;;;-144.05;77.21;57071.84;5101692;28;20025;-76
2024/01/19 09:23:30;;;;;;;59.00;27.05;;;;;;;-144.05;77.62;57116.47;5103840;28;20050;-76
2024/01/19 09:25:57;;;;;;;64.65;29.25;;;;;;;-144.05;77.50;57082.47;5095075;28;20481;-76
2024/01/19 09:28:23;;;;;;;65.82;29.48;;;;;;;-144.05;77.70;57084.59;5095623;28;20038;-76
2024/01/19 09:30:49;;;;;;;59.10;27.23;;;;;;;-144.05;77.63;57095.22;5102712;28;20416;-76
2024/01/19 09:33:16;;;;;;;60.88;28.35;;;;;;;-144.05;76.61;57088.84;5095529;28;20035;-78
2024/01/19 09:35:42;;;;;;;68.07;28.95;;;;;;;-144.05;77.41;57076.09;5097910;28;20485;-78
2024/01/19 09:38:09;;;;;;;56.67;26.88;;;;;;;-144.05;77.30;57078.22;5101558;28;20035;-75
2024/01/19 09:40:35;;;;;;;62.13;27.33;;;;;;;-144.05;77.91;57090.97;5095728;28;20126;-75
2024/01/19 09:43:02;;;;;;;59.60;26.45;;;;;;;-144.05;76.69;57093.09;5103499;28;20062;-76
2024/01/19 09:45:43;;;;;;;59.72;29.00;;;-2.80;99.90;;;-144.05;76.92;57118.59;5096129;28;20035;-77
2024/01/19 09:48:27;;;;;;;56.40;25.00;;;-2.10;99.90;;;-144.05;77.35;57103.72;5107545;28;20039;-75
2024/01/19 09:50:56;;;;;;;53.78;24.42;;;1.70;99.90;;;-144.05;77.30;57067.59;5109003;28;20025;-77
2024/01/19 09:53:32;;;;;;;54.17;24.25;;;;;;;-144.05;76.88;57073.97;5102571;28;20062;-76
2024/01/19 09:55:59;;;;;;;45.17;23.75;;;;;;;-144.05;76.96;57082.47;5108096;28;20035;-79
2024/01/19 09:58:27;;;;;;;50.47;24.27;;;1.10;99.90;;;-144.05;77.31;57107.97;5099777;28;20087;-74
2024/01/19 10:00:54;;;;;;;46.55;22.50;;;;;;;-144.05;76.97;57056.97;5101576;28;20034;-75
2024/01/19 10:03:22;;;;;;;45.58;22.85;;;;;;;-144.05;76.29;57069.72;5100203;28;20102;-76
2024/01/19 10:05:52;;;;;;;47.35;22.75;;;;;;;-144.05;76.75;57103.72;5107327;28;20028;-76
2024/01/19 10:08:19;;;;;;;54.95;23.65;;;;;;;-144.05;76.52;57093.09;5102061;28;20027;-77
2024/01/19 10:10:46;;;;;;;49.47;22.92;;;;;;;-144.05;76.25;57080.34;5110240;28;20088;-78
2024/01/19 10:13:13;;;;;;;47.00;21.05;;;;;;;-144.05;76.46;57069.72;5113393;28;20038;-76
2024/01/19 10:15:43;;;;;;;46.40;21.65;;;;;;;-144.05;76.56;57073.97;5127366;28;20078;-78
2024/01/19 10:18:17;;;;;;;44.55;22.60;;;;;;;-144.05;77.01;57065.47;5104187;28;20024;-80
2024/01/19 10:20:49;;;;;;;42.53;21.50;;;;;;;-144.05;76.39;57082.47;5102544;28;20079;-76
2024/01/19 10:23:23;;;;;;;46.95;23.23;;;-3.00;99.90;;;-144.05;76.49;57069.72;5101702;28;20385;-77
2024/01/19 10:25:51;;;;;;;48.55;21.00;;;-3.10;99.90;;;-144.05;77.19;57097.34;5105037;28;20039;-78
2024/01/19 10:28:35;;;;;;;51.53;23.52;;;1.00;99.90;;;-144.05;76.66;57090.97;5113240;28;20032;-78
2024/01/19 10:31:33;;;;;;;40.95;21.13;;;-2.30;99.90;;;-144.05;75.87;57065.47;5097134;28;20559;-76
2024/01/19 10:33:59;;;;;;;47.22;22.58;;;;;;;-144.05;75.63;57048.50;5058608;28;20039;-77
2024/01/19 10:36:26;;;;;;;49.83;25.00;;;;;;;-144.05;75.72;57090.97;5095943;28;20548;-77
2024/01/19 10:38:53;;;;;;;52.08;24.58;;;;;;;-144.05;75.55;57069.72;5096568;28;20020;-76
2024/01/19 10:41:25;;;;;;;53.92;24.27;;;;;;;-144.05;75.57;57097.34;5107049;28;20062;-79
2024/01/19 10:43:51;;;;;;;46.90;21.15;;;;;;;-144.05;76.24;57101.59;5098108;27;20071;-77
2024/01/19 10:46:26;;;;;;;51.22;22.25;;;;;;;-144.05;76.08;57103.72;5106880;28;20032;-77
2024/01/19 10:48:52;;;;;;;51.03;24.15;;;;;;;-144.05;75.53;57063.34;5107170;28;20036;-77
2024/01/19 10:51:22;;;;;;;45.22;21.92;;;;;;;-144.05;76.39;57054.88;5100564;28;20032;-77
2024/01/19 10:53:52;;;;;;;47.88;23.10;;;;;;;-144.05;75.97;57084.59;5098940;28;20036;-77
2024/01/19 10:56:21;;;;;;;45.97;21.23;;;2.40;99.90;;;-144.05;76.31;57090.97;5098463;28;20020;-75